sensor_id;sensor_type;location;lat;lon;timestamp;temperature;humidity
5711;DHT22;61291;52.524;13.422;2023-12-14T00:02:15;4.90;99.90
5711;DHT22;61291;52.524;13.422;2023-12-14T00:04:41;4.90;99.90
5711;DHT22;61291;52.524;13.422;2023-12-14T00:07:06;5.20;99.90
5711;DHT22;61291;52.524;13.422;2023-12-14T00:09:32;5.00;99.90
5711;DHT22;61291;52.524;13.422;2023-12-14T00:11:57;5.00;99.90
5711;DHT22;61291;52.524;13.422;2023-12-14T00:14:23;4.90;99.90
5711;DHT22;61291;52.524;13.422;2023-12-14T00:16:48;4.90;99.90
5711;DHT22;61291;52.524;13.422;2023-12-14T00:19:14;5.00;99.90
5711;DHT22;61291;52.524;13.422;2023-12-14T00:21:40;4.90;99.90
5711;DHT22;61291;52.524;13.422;2023-12-14T00:24:06;5.00;99.90
5711;DHT22;61291;52.524;13.422;2023-12-14T00:26:32;4.90;99.90
5711;DHT22;61291;52.524;13.422;2023-12-14T00:28:57;5.00;99.90
5711;DHT22;61291;52.524;13.422;2023-12-14T00:31:23;4.80;99.90
5711;DHT22;61291;52.524;13.422;2023-12-14T00:33:48;4.80;99.90
5711;DHT22;61291;52.524;13.422;2023-12-14T00:36:18;4.80;99.90
5711;DHT22;61291;52.524;13.422;2023-12-14T00:38:43;4.80;99.90
5711;DHT22;61291;52.524;13.422;2023-12-14T00:41:09;4.70;99.90
5711;DHT22;61291;52.524;13.422;2023-12-14T00:43:35;4.80;99.90
5711;DHT22;61291;52.524;13.422;2023-12-14T00:46:02;4.90;99.90
5711;DHT22;61291;52.524;13.422;2023-12-14T00:48:28;4.80;99.90
5711;DHT22;61291;52.524;13.422;2023-12-14T00:50:53;4.80;99.90
5711;DHT22;61291;52.524;13.422;2023-12-14T00:53:18;4.80;99.90
5711;DHT22;61291;52.524;13.422;2023-12-14T00:55:44;4.80;99.90
5711;DHT22;61291;52.524;13.422;2023-12-14T00:58:11;4.80;99.90
5711;DHT22;61291;52.524;13.422;2023-12-14T01:00:38;4.70;99.90
5711;DHT22;61291;52.524;13.422;2023-12-14T01:03:04;4.80;99.90
5711;DHT22;61291;52.524;13.422;2023-12-14T01:05:29;4.80;99.90
5711;DHT22;61291;52.524;13.422;2023-12-14T01:07:55;4.80;99.90
5711;DHT22;61291;52.524;13.422;2023-12-14T01:10:20;4.60;99.90
5711;DHT22;61291;52.524;13.422;2023-12-14T01:12:46;4.60;99.90
5711;DHT22;61291;52.524;13.422;2023-12-14T01:15:11;4.70;99.90
5711;DHT22;61291;52.524;13.422;2023-12-14T01:17:37;4.60;99.90
5711;DHT22;61291;52.524;13.422;2023-12-14T01:20:06;4.50;99.90
5711;DHT22;61291;52.524;13.422;2023-12-14T01:22:32;4.60;99.90
5711;DHT22;61291;52.524;13.422;2023-12-14T01:24:58;4.60;99.90
5711;DHT22;61291;52.524;13.422;2023-12-14T01:27:24;4.60;99.90
5711;DHT22;61291;52.524;13.422;2023-12-14T01:29:50;4.60;99.90
5711;DHT22;61291;52.524;13.422;2023-12-14T01:32:15;4.60;99.90
5711;DHT22;61291;52.524;13.422;2023-12-14T01:34:41;4.50;99.90
5711;DHT22;61291;52.524;13.422;2023-12-14T01:37:06;4.50;99.90
5711;DHT22;61291;52.524;13.422;2023-12-14T01:39:32;4.40;99.90
5711;DHT22;61291;52.524;13.422;2023-12-14T01:41:58;4.40;99.90
5711;DHT22;61291;52.524;13.422;2023-12-14T01:44:24;4.40;99.90
5711;DHT22;61291;52.524;13.422;2023-12-14T01:46:49;4.30;99.90
5711;DHT22;61291;52.524;13.422;2023-12-14T01:49:15;4.30;99.90
5711;DHT22;61291;52.524;13.422;2023-12-14T01:51:40;4.20;99.90
5711;DHT22;61291;52.524;13.422;2023-12-14T01:54:06;4.30;99.90
5711;DHT22;61291;52.524;13.422;2023-12-14T01:56:31;4.20;99.90
5711;DHT22;61291;52.524;13.422;2023-12-14T01:58:57;4.20;99.90
5711;DHT22;61291;52.524;13.422;2023-12-14T02:04:07;4.30;99.90
5711;DHT22;61291;52.524;13.422;2023-12-14T02:06:32;4.30;99.90
5711;DHT22;61291;52.524;13.422;2023-12-14T02:08:58;4.30;99.90
5711;DHT22;61291;52.524;13.422;2023-12-14T02:11:23;4.40;99.90
5711;DHT22;61291;52.524;13.422;2023-12-14T02:13:49;4.20;99.90
5711;DHT22;61291;52.524;13.422;2023-12-14T02:16:14;4.30;99.90
5711;DHT22;61291;52.524;13.422;2023-12-14T02:18:40;4.10;99.90
5711;DHT22;61291;52.524;13.422;2023-12-14T02:21:06;4.20;99.90
5711;DHT22;61291;52.524;13.422;2023-12-14T02:23:31;4.30;99.90
5711;DHT22;61291;52.524;13.422;2023-12-14T02:25:57;4.30;99.90
5711;DHT22;61291;52.524;13.422;2023-12-14T02:28:22;4.30;99.90
5711;DHT22;61291;52.524;13.422;2023-12-14T02:30:48;4.20;99.90
5711;DHT22;61291;52.524;13.422;2023-12-14T02:33:13;4.30;99.90
5711;DHT22;61291;52.524;13.422;2023-12-14T02:35:39;4.20;99.90
5711;DHT22;61291;52.524;13.422;2023-12-14T02:38:04;4.20;99.90
5711;DHT22;61291;52.524;13.422;2023-12-14T02:40:30;4.00;99.90
5711;DHT22;61291;52.524;13.422;2023-12-14T02:42:55;4.10;99.90
5711;DHT22;61291;52.524;13.422;2023-12-14T02:45:20;4.20;99.90
5711;DHT22;61291;52.524;13.422;2023-12-14T02:47:46;4.10;99.90
5711;DHT22;61291;52.524;13.422;2023-12-14T02:50:13;4.20;99.90
5711;DHT22;61291;52.524;13.422;2023-12-14T02:52:39;4.20;99.90
5711;DHT22;61291;52.524;13.422;2023-12-14T02:55:04;4.20;99.90
5711;DHT22;61291;52.524;13.422;2023-12-14T02:57:30;4.30;99.90
5711;DHT22;61291;52.524;13.422;2023-12-14T02:59:55;4.30;99.90
5711;DHT22;61291;52.524;13.422;2023-12-14T03:02:21;4.30;99.90
5711;DHT22;61291;52.524;13.422;2023-12-14T03:04:47;4.20;99.90
5711;DHT22;61291;52.524;13.422;2023-12-14T03:07:12;4.30;99.90
5711;DHT22;61291;52.524;13.422;2023-12-14T03:09:41;4.10;99.90
5711;DHT22;61291;52.524;13.422;2023-12-14T03:12:09;4.20;99.90
5711;DHT22;61291;52.524;13.422;2023-12-14T03:14:35;4.20;99.90
5711;DHT22;61291;52.524;13.422;2023-12-14T03:17:00;4.20;99.90
5711;DHT22;61291;52.524;13.422;2023-12-14T03:19:26;4.20;99.90
5711;DHT22;61291;52.524;13.422;2023-12-14T03:21:52;4.20;99.90
5711;DHT22;61291;52.524;13.422;2023-12-14T03:24:17;4.20;99.90
5711;DHT22;61291;52.524;13.422;2023-12-14T03:26:43;4.10;99.90
5711;DHT22;61291;52.524;13.422;2023-12-14T03:29:08;4.20;99.90
5711;DHT22;61291;52.524;13.422;2023-12-14T03:31:34;4.10;99.90
5711;DHT22;61291;52.524;13.422;2023-12-14T03:34:00;4.20;99.90
5711;DHT22;61291;52.524;13.422;2023-12-14T03:36:26;4.20;99.90
5711;DHT22;61291;52.524;13.422;2023-12-14T03:38:53;4.20;99.90
5711;DHT22;61291;52.524;13.422;2023-12-14T03:41:18;4.20;99.90
5711;DHT22;61291;52.524;13.422;2023-12-14T03:43:44;4.20;99.90
5711;DHT22;61291;52.524;13.422;2023-12-14T03:46:09;4.30;99.90
5711;DHT22;61291;52.524;13.422;2023-12-14T03:48:35;4.20;99.90
5711;DHT22;61291;52.524;13.422;2023-12-14T03:51:04;4.30;99.90
5711;DHT22;61291;52.524;13.422;2023-12-14T03:53:30;4.20;99.90
5711;DHT22;61291;52.524;13.422;2023-12-14T03:55:57;4.20;99.90
5711;DHT22;61291;52.524;13.422;2023-12-14T03:58:22;4.20;99.90
5711;DHT22;61291;52.524;13.422;2023-12-14T04:00:48;4.20;99.90
5711;DHT22;61291;52.524;13.422;2023-12-14T04:03:13;4.20;99.90
5711;DHT22;61291;52.524;13.422;2023-12-14T04:05:38;4.20;99.90
5711;DHT22;61291;52.524;13.422;2023-12-14T04:08:04;4.20;99.90
5711;DHT22;61291;52.524;13.422;2023-12-14T04:10:30;4.20;99.90
5711;DHT22;61291;52.524;13.422;2023-12-14T04:12:55;4.20;99.90
5711;DHT22;61291;52.524;13.422;2023-12-14T04:15:21;4.20;99.90
5711;DHT22;61291;52.524;13.422;2023-12-14T04:17:46;4.00;99.90
5711;DHT22;61291;52.524;13.422;2023-12-14T04:20:13;4.10;99.90
5711;DHT22;61291;52.524;13.422;2023-12-14T04:22:41;4.10;99.90
5711;DHT22;61291;52.524;13.422;2023-12-14T04:25:07;4.10;99.90
5711;DHT22;61291;52.524;13.422;2023-12-14T04:27:32;4.20;99.90
5711;DHT22;61291;52.524;13.422;2023-12-14T04:29:58;4.10;99.90
5711;DHT22;61291;52.524;13.422;2023-12-14T04:32:24;4.20;99.90
5711;DHT22;61291;52.524;13.422;2023-12-14T04:34:49;4.30;99.90
5711;DHT22;61291;52.524;13.422;2023-12-14T04:37:15;4.20;99.90
5711;DHT22;61291;52.524;13.422;2023-12-14T04:39:40;4.20;99.90
5711;DHT22;61291;52.524;13.422;2023-12-14T04:42:06;4.20;99.90
5711;DHT22;61291;52.524;13.422;2023-12-14T04:44:31;4.20;99.90
5711;DHT22;61291;52.524;13.422;2023-12-14T04:46:57;4.10;99.90
5711;DHT22;61291;52.524;13.422;2023-12-14T04:49:22;4.20;99.90
5711;DHT22;61291;52.524;13.422;2023-12-14T04:51:47;4.30;99.90
5711;DHT22;61291;52.524;13.422;2023-12-14T04:54:13;4.30;99.90
5711;DHT22;61291;52.524;13.422;2023-12-14T04:56:38;4.20;99.90
5711;DHT22;61291;52.524;13.422;2023-12-14T04:59:04;4.30;99.90
5711;DHT22;61291;52.524;13.422;2023-12-14T05:01:29;4.30;99.90
5711;DHT22;61291;52.524;13.422;2023-12-14T05:03:55;4.40;99.90
5711;DHT22;61291;52.524;13.422;2023-12-14T05:06:21;4.40;99.90
5711;DHT22;61291;52.524;13.422;2023-12-14T05:08:46;4.40;99.90
5711;DHT22;61291;52.524;13.422;2023-12-14T05:11:12;4.50;99.90
5711;DHT22;61291;52.524;13.422;2023-12-14T05:13:38;4.50;99.90
5711;DHT22;61291;52.524;13.422;2023-12-14T05:16:04;4.50;99.90
5711;DHT22;61291;52.524;13.422;2023-12-14T05:18:29;4.40;99.90
5711;DHT22;61291;52.524;13.422;2023-12-14T05:20:55;4.50;99.90
5711;DHT22;61291;52.524;13.422;2023-12-14T05:23:20;4.50;99.90
5711;DHT22;61291;52.524;13.422;2023-12-14T05:25:46;4.50;99.90
5711;DHT22;61291;52.524;13.422;2023-12-14T05:28:11;4.50;99.90
5711;DHT22;61291;52.524;13.422;2023-12-14T05:30:37;4.30;99.90
5711;DHT22;61291;52.524;13.422;2023-12-14T05:33:02;4.40;99.90
5711;DHT22;61291;52.524;13.422;2023-12-14T05:35:28;4.40;99.90
5711;DHT22;61291;52.524;13.422;2023-12-14T05:37:53;4.40;99.90
5711;DHT22;61291;52.524;13.422;2023-12-14T05:40:19;4.40;99.90
5711;DHT22;61291;52.524;13.422;2023-12-14T05:42:45;4.50;99.90
5711;DHT22;61291;52.524;13.422;2023-12-14T05:45:10;4.40;99.90
5711;DHT22;61291;52.524;13.422;2023-12-14T05:47:36;4.50;99.90
5711;DHT22;61291;52.524;13.422;2023-12-14T05:50:01;4.60;99.90
5711;DHT22;61291;52.524;13.422;2023-12-14T05:52:27;4.50;99.90
5711;DHT22;61291;52.524;13.422;2023-12-14T05:54:53;4.40;99.90
5711;DHT22;61291;52.524;13.422;2023-12-14T05:57:18;4.50;99.90
5711;DHT22;61291;52.524;13.422;2023-12-14T05:59:44;4.50;99.90
5711;DHT22;61291;52.524;13.422;2023-12-14T06:02:09;4.40;99.90
5711;DHT22;61291;52.524;13.422;2023-12-14T06:04:35;4.50;99.90
5711;DHT22;61291;52.524;13.422;2023-12-14T06:07:00;4.50;99.90
5711;DHT22;61291;52.524;13.422;2023-12-14T06:09:26;4.50;99.90
5711;DHT22;61291;52.524;13.422;2023-12-14T06:11:59;4.60;99.90
5711;DHT22;61291;52.524;13.422;2023-12-14T06:14:26;4.60;99.90
5711;DHT22;61291;52.524;13.422;2023-12-14T06:16:51;4.40;99.90
5711;DHT22;61291;52.524;13.422;2023-12-14T06:19:17;4.50;99.90
5711;DHT22;61291;52.524;13.422;2023-12-14T06:21:42;4.40;99.90
5711;DHT22;61291;52.524;13.422;2023-12-14T06:24:08;4.40;99.90
5711;DHT22;61291;52.524;13.422;2023-12-14T06:26:33;4.50;99.90
5711;DHT22;61291;52.524;13.422;2023-12-14T06:28:59;4.40;99.90
5711;DHT22;61291;52.524;13.422;2023-12-14T06:31:24;4.50;99.90
5711;DHT22;61291;52.524;13.422;2023-12-14T06:33:50;4.50;99.90
5711;DHT22;61291;52.524;13.422;2023-12-14T06:36:18;4.50;99.90
5711;DHT22;61291;52.524;13.422;2023-12-14T06:38:44;4.60;99.90
5711;DHT22;61291;52.524;13.422;2023-12-14T06:41:20;4.60;99.90
5711;DHT22;61291;52.524;13.422;2023-12-14T06:43:46;4.50;99.90
5711;DHT22;61291;52.524;13.422;2023-12-14T06:46:11;4.50;99.90
5711;DHT22;61291;52.524;13.422;2023-12-14T06:48:37;4.50;99.90
5711;DHT22;61291;52.524;13.422;2023-12-14T06:51:02;4.50;99.90
5711;DHT22;61291;52.524;13.422;2023-12-14T06:53:28;4.50;99.90
5711;DHT22;61291;52.524;13.422;2023-12-14T06:55:55;4.50;99.90
5711;DHT22;61291;52.524;13.422;2023-12-14T06:58:20;4.50;99.90
5711;DHT22;61291;52.524;13.422;2023-12-14T07:00:46;4.40;99.90
5711;DHT22;61291;52.524;13.422;2023-12-14T07:03:12;4.40;99.90
5711;DHT22;61291;52.524;13.422;2023-12-14T07:05:39;4.40;99.90
5711;DHT22;61291;52.524;13.422;2023-12-14T07:08:04;4.50;99.90
5711;DHT22;61291;52.524;13.422;2023-12-14T07:10:30;4.50;99.90
5711;DHT22;61291;52.524;13.422;2023-12-14T07:12:55;4.50;99.90
5711;DHT22;61291;52.524;13.422;2023-12-14T07:15:21;4.60;99.90
5711;DHT22;61291;52.524;13.422;2023-12-14T07:17:46;4.40;99.90
5711;DHT22;61291;52.524;13.422;2023-12-14T07:20:12;4.40;99.90
5711;DHT22;61291;52.524;13.422;2023-12-14T07:22:37;4.60;99.90
5711;DHT22;61291;52.524;13.422;2023-12-14T07:25:04;4.60;99.90
5711;DHT22;61291;52.524;13.422;2023-12-14T07:27:29;4.60;99.90
5711;DHT22;61291;52.524;13.422;2023-12-14T07:29:55;4.60;99.90
5711;DHT22;61291;52.524;13.422;2023-12-14T07:32:21;4.60;99.90
5711;DHT22;61291;52.524;13.422;2023-12-14T07:34:46;4.80;99.90
5711;DHT22;61291;52.524;13.422;2023-12-14T07:37:12;4.80;99.90
5711;DHT22;61291;52.524;13.422;2023-12-14T07:39:37;4.70;99.90
5711;DHT22;61291;52.524;13.422;2023-12-14T07:42:03;4.80;99.90
5711;DHT22;61291;52.524;13.422;2023-12-14T07:44:29;4.50;99.90
5711;DHT22;61291;52.524;13.422;2023-12-14T07:46:56;4.70;99.90
5711;DHT22;61291;52.524;13.422;2023-12-14T07:49:21;4.70;99.90
5711;DHT22;61291;52.524;13.422;2023-12-14T07:51:49;4.70;99.90
5711;DHT22;61291;52.524;13.422;2023-12-14T07:54:14;4.70;99.90
5711;DHT22;61291;52.524;13.422;2023-12-14T07:56:40;4.80;99.90
5711;DHT22;61291;52.524;13.422;2023-12-14T07:59:06;4.80;99.90
5711;DHT22;61291;52.524;13.422;2023-12-14T08:01:36;4.90;99.90
5711;DHT22;61291;52.524;13.422;2023-12-14T08:04:02;4.90;99.90
5711;DHT22;61291;52.524;13.422;2023-12-14T08:06:31;4.90;99.90
5711;DHT22;61291;52.524;13.422;2023-12-14T08:08:57;4.80;99.90
5711;DHT22;61291;52.524;13.422;2023-12-14T08:11:25;4.70;99.90
5711;DHT22;61291;52.524;13.422;2023-12-14T08:13:51;4.90;99.90
5711;DHT22;61291;52.524;13.422;2023-12-14T08:16:16;5.00;99.90
5711;DHT22;61291;52.524;13.422;2023-12-14T08:18:45;4.80;99.90
5711;DHT22;61291;52.524;13.422;2023-12-14T08:21:12;4.90;99.90
5711;DHT22;61291;52.524;13.422;2023-12-14T08:23:38;5.00;99.90
5711;DHT22;61291;52.524;13.422;2023-12-14T08:26:03;5.00;99.90
5711;DHT22;61291;52.524;13.422;2023-12-14T08:28:29;4.90;99.90
5711;DHT22;61291;52.524;13.422;2023-12-14T08:30:55;4.90;99.90
5711;DHT22;61291;52.524;13.422;2023-12-14T08:33:21;4.90;99.90
5711;DHT22;61291;52.524;13.422;2023-12-14T08:35:46;4.90;99.90
5711;DHT22;61291;52.524;13.422;2023-12-14T08:38:12;4.90;99.90
5711;DHT22;61291;52.524;13.422;2023-12-14T08:40:38;4.90;99.90
5711;DHT22;61291;52.524;13.422;2023-12-14T08:43:04;5.00;99.90
5711;DHT22;61291;52.524;13.422;2023-12-14T08:45:29;5.00;99.90
5711;DHT22;61291;52.524;13.422;2023-12-14T08:47:55;5.10;99.90
5711;DHT22;61291;52.524;13.422;2023-12-14T08:50:21;5.20;99.90
5711;DHT22;61291;52.524;13.422;2023-12-14T08:52:48;5.10;99.90
5711;DHT22;61291;52.524;13.422;2023-12-14T08:55:13;5.10;99.90
5711;DHT22;61291;52.524;13.422;2023-12-14T08:57:39;5.20;99.90
5711;DHT22;61291;52.524;13.422;2023-12-14T09:00:05;5.30;99.90
5711;DHT22;61291;52.524;13.422;2023-12-14T09:02:32;5.30;99.90
5711;DHT22;61291;52.524;13.422;2023-12-14T09:04:58;5.30;99.90
5711;DHT22;61291;52.524;13.422;2023-12-14T09:07:23;5.30;99.90
5711;DHT22;61291;52.524;13.422;2023-12-14T09:09:49;5.40;99.90
5711;DHT22;61291;52.524;13.422;2023-12-14T09:12:14;5.40;99.90
5711;DHT22;61291;52.524;13.422;2023-12-14T09:14:40;5.50;99.90
5711;DHT22;61291;52.524;13.422;2023-12-14T09:17:05;5.50;99.90
5711;DHT22;61291;52.524;13.422;2023-12-14T09:19:30;5.50;99.90
5711;DHT22;61291;52.524;13.422;2023-12-14T09:21:59;5.50;99.90
5711;DHT22;61291;52.524;13.422;2023-12-14T09:24:25;5.30;99.90
5711;DHT22;61291;52.524;13.422;2023-12-14T09:26:50;5.40;99.90
5711;DHT22;61291;52.524;13.422;2023-12-14T09:29:16;5.60;99.90
5711;DHT22;61291;52.524;13.422;2023-12-14T09:31:42;5.60;99.90
5711;DHT22;61291;52.524;13.422;2023-12-14T09:34:09;5.40;99.90
5711;DHT22;61291;52.524;13.422;2023-12-14T09:36:34;5.50;99.90
5711;DHT22;61291;52.524;13.422;2023-12-14T09:39:00;5.40;99.90
5711;DHT22;61291;52.524;13.422;2023-12-14T09:41:25;5.30;99.90
5711;DHT22;61291;52.524;13.422;2023-12-14T09:43:52;5.30;99.90
5711;DHT22;61291;52.524;13.422;2023-12-14T09:46:18;5.30;99.90
5711;DHT22;61291;52.524;13.422;2023-12-14T09:48:45;5.20;99.90
5711;DHT22;61291;52.524;13.422;2023-12-14T09:51:12;5.40;99.90
5711;DHT22;61291;52.524;13.422;2023-12-14T09:53:37;5.30;99.90
5711;DHT22;61291;52.524;13.422;2023-12-14T09:56:03;5.40;99.90
5711;DHT22;61291;52.524;13.422;2023-12-14T09:58:32;5.50;99.90
5711;DHT22;61291;52.524;13.422;2023-12-14T10:00:58;5.50;99.90
5711;DHT22;61291;52.524;13.422;2023-12-14T10:03:27;5.40;99.90
5711;DHT22;61291;52.524;13.422;2023-12-14T10:05:54;5.40;99.90
5711;DHT22;61291;52.524;13.422;2023-12-14T10:08:21;5.40;99.90
5711;DHT22;61291;52.524;13.422;2023-12-14T10:10:48;5.60;99.90
5711;DHT22;61291;52.524;13.422;2023-12-14T10:13:14;5.60;99.90
5711;DHT22;61291;52.524;13.422;2023-12-14T10:15:44;5.60;99.90
5711;DHT22;61291;52.524;13.422;2023-12-14T10:18:10;5.60;99.90
5711;DHT22;61291;52.524;13.422;2023-12-14T10:20:36;5.80;99.90
5711;DHT22;61291;52.524;13.422;2023-12-14T10:23:06;5.80;99.90
5711;DHT22;61291;52.524;13.422;2023-12-14T10:25:32;5.90;99.90
5711;DHT22;61291;52.524;13.422;2023-12-14T10:27:58;6.00;99.90
5711;DHT22;61291;52.524;13.422;2023-12-14T10:30:25;5.80;99.90
5711;DHT22;61291;52.524;13.422;2023-12-14T10:32:51;5.90;99.90
5711;DHT22;61291;52.524;13.422;2023-12-14T10:35:16;5.90;99.90
5711;DHT22;61291;52.524;13.422;2023-12-14T10:37:43;5.80;99.90
5711;DHT22;61291;52.524;13.422;2023-12-14T10:40:13;5.70;99.90
5711;DHT22;61291;52.524;13.422;2023-12-14T10:42:42;5.80;99.90
5711;DHT22;61291;52.524;13.422;2023-12-14T10:45:11;5.70;99.90
5711;DHT22;61291;52.524;13.422;2023-12-14T10:47:39;5.70;99.90
5711;DHT22;61291;52.524;13.422;2023-12-14T10:50:08;5.80;99.90
5711;DHT22;61291;52.524;13.422;2023-12-14T10:52:37;5.80;99.90
5711;DHT22;61291;52.524;13.422;2023-12-14T10:55:07;5.80;99.90
5711;DHT22;61291;52.524;13.422;2023-12-14T10:57:34;5.70;99.90
5711;DHT22;61291;52.524;13.422;2023-12-14T11:00:01;5.70;99.90
5711;DHT22;61291;52.524;13.422;2023-12-14T11:02:27;5.80;99.90
5711;DHT22;61291;52.524;13.422;2023-12-14T11:05:01;5.70;99.90
5711;DHT22;61291;52.524;13.422;2023-12-14T11:10:12;5.60;99.90
5711;DHT22;61291;52.524;13.422;2023-12-14T11:12:37;5.80;99.90
5711;DHT22;61291;52.524;13.422;2023-12-14T11:15:06;5.90;99.90
5711;DHT22;61291;52.524;13.422;2023-12-14T11:17:32;6.10;99.90
5711;DHT22;61291;52.524;13.422;2023-12-14T11:20:26;6.10;99.90
5711;DHT22;61291;52.524;13.422;2023-12-14T11:22:55;6.20;99.90
5711;DHT22;61291;52.524;13.422;2023-12-14T11:25:22;6.40;99.90
5711;DHT22;61291;52.524;13.422;2023-12-14T11:27:48;6.30;99.90
5711;DHT22;61291;52.524;13.422;2023-12-14T11:30:15;6.40;99.90
5711;DHT22;61291;52.524;13.422;2023-12-14T11:32:41;6.40;99.90
5711;DHT22;61291;52.524;13.422;2023-12-14T11:35:07;6.50;99.90
5711;DHT22;61291;52.524;13.422;2023-12-14T11:37:36;6.50;99.90
5711;DHT22;61291;52.524;13.422;2023-12-14T11:40:02;6.40;99.90
5711;DHT22;61291;52.524;13.422;2023-12-14T11:42:30;6.50;99.90
5711;DHT22;61291;52.524;13.422;2023-12-14T11:44:57;6.50;99.90
5711;DHT22;61291;52.524;13.422;2023-12-14T11:47:22;6.60;99.90
5711;DHT22;61291;52.524;13.422;2023-12-14T11:49:48;6.40;99.90
5711;DHT22;61291;52.524;13.422;2023-12-14T11:52:14;6.40;99.90
5711;DHT22;61291;52.524;13.422;2023-12-14T11:54:39;6.40;99.90
5711;DHT22;61291;52.524;13.422;2023-12-14T11:57:05;6.40;99.90
5711;DHT22;61291;52.524;13.422;2023-12-14T11:59:34;6.20;99.90
5711;DHT22;61291;52.524;13.422;2023-12-14T12:02:01;6.10;99.90
5711;DHT22;61291;52.524;13.422;2023-12-14T12:04:27;6.10;99.90
5711;DHT22;61291;52.524;13.422;2023-12-14T12:07:00;6.00;99.90
5711;DHT22;61291;52.524;13.422;2023-12-14T12:09:41;6.10;99.90
5711;DHT22;61291;52.524;13.422;2023-12-14T12:12:11;6.20;99.90
5711;DHT22;61291;52.524;13.422;2023-12-14T12:14:38;6.00;99.90
5711;DHT22;61291;52.524;13.422;2023-12-14T12:17:05;6.00;99.90
5711;DHT22;61291;52.524;13.422;2023-12-14T12:19:35;6.00;99.90
5711;DHT22;61291;52.524;13.422;2023-12-14T12:22:01;5.90;99.90
5711;DHT22;61291;52.524;13.422;2023-12-14T12:24:26;5.60;99.90
5711;DHT22;61291;52.524;13.422;2023-12-14T12:26:52;5.60;99.90
5711;DHT22;61291;52.524;13.422;2023-12-14T12:29:18;5.60;99.90
5711;DHT22;61291;52.524;13.422;2023-12-14T12:31:43;5.70;99.90
5711;DHT22;61291;52.524;13.422;2023-12-14T12:34:11;5.50;99.90
5711;DHT22;61291;52.524;13.422;2023-12-14T12:36:36;5.60;99.90
5711;DHT22;61291;52.524;13.422;2023-12-14T12:39:02;5.60;99.90
5711;DHT22;61291;52.524;13.422;2023-12-14T12:41:28;5.70;99.90
5711;DHT22;61291;52.524;13.422;2023-12-14T12:43:54;5.80;99.90
5711;DHT22;61291;52.524;13.422;2023-12-14T12:46:19;5.90;99.90
5711;DHT22;61291;52.524;13.422;2023-12-14T12:48:45;6.00;99.90
5711;DHT22;61291;52.524;13.422;2023-12-14T12:51:12;6.00;99.90
5711;DHT22;61291;52.524;13.422;2023-12-14T12:53:37;5.90;99.90
5711;DHT22;61291;52.524;13.422;2023-12-14T12:56:03;5.90;99.90
5711;DHT22;61291;52.524;13.422;2023-12-14T12:58:29;5.80;99.90
5711;DHT22;61291;52.524;13.422;2023-12-14T13:00:55;5.80;99.90
5711;DHT22;61291;52.524;13.422;2023-12-14T13:03:20;5.70;99.90
5711;DHT22;61291;52.524;13.422;2023-12-14T13:05:46;5.80;99.90
5711;DHT22;61291;52.524;13.422;2023-12-14T13:08:13;5.80;99.90
5711;DHT22;61291;52.524;13.422;2023-12-14T13:10:38;5.90;99.90
5711;DHT22;61291;52.524;13.422;2023-12-14T13:13:04;5.90;99.90
5711;DHT22;61291;52.524;13.422;2023-12-14T13:15:32;5.90;99.90
5711;DHT22;61291;52.524;13.422;2023-12-14T13:17:57;5.70;99.90
5711;DHT22;61291;52.524;13.422;2023-12-14T13:20:24;5.70;99.90
5711;DHT22;61291;52.524;13.422;2023-12-14T13:22:49;5.70;99.90
5711;DHT22;61291;52.524;13.422;2023-12-14T13:25:15;5.70;99.90
5711;DHT22;61291;52.524;13.422;2023-12-14T13:27:41;5.70;99.90
5711;DHT22;61291;52.524;13.422;2023-12-14T13:30:08;5.60;99.90
5711;DHT22;61291;52.524;13.422;2023-12-14T13:32:34;5.50;99.90
5711;DHT22;61291;52.524;13.422;2023-12-14T13:34:59;5.40;99.90
5711;DHT22;61291;52.524;13.422;2023-12-14T13:37:25;5.40;99.90
5711;DHT22;61291;52.524;13.422;2023-12-14T13:39:50;5.50;99.90
5711;DHT22;61291;52.524;13.422;2023-12-14T13:42:18;5.30;99.90
5711;DHT22;61291;52.524;13.422;2023-12-14T13:44:44;5.30;99.90
5711;DHT22;61291;52.524;13.422;2023-12-14T13:47:10;5.30;99.90
5711;DHT22;61291;52.524;13.422;2023-12-14T13:49:35;5.40;99.90
5711;DHT22;61291;52.524;13.422;2023-12-14T13:52:01;5.30;99.90
5711;DHT22;61291;52.524;13.422;2023-12-14T13:54:27;5.30;99.90
5711;DHT22;61291;52.524;13.422;2023-12-14T13:56:52;5.30;99.90
5711;DHT22;61291;52.524;13.422;2023-12-14T13:59:18;5.20;99.90
5711;DHT22;61291;52.524;13.422;2023-12-14T14:01:44;5.20;99.90
5711;DHT22;61291;52.524;13.422;2023-12-14T14:04:10;5.20;99.90
5711;DHT22;61291;52.524;13.422;2023-12-14T14:06:35;5.20;99.90
5711;DHT22;61291;52.524;13.422;2023-12-14T14:09:01;5.10;99.90
5711;DHT22;61291;52.524;13.422;2023-12-14T14:11:26;5.30;99.90
5711;DHT22;61291;52.524;13.422;2023-12-14T14:13:52;5.30;99.90
5711;DHT22;61291;52.524;13.422;2023-12-14T14:16:17;5.20;99.90
5711;DHT22;61291;52.524;13.422;2023-12-14T14:18:43;5.20;99.90
5711;DHT22;61291;52.524;13.422;2023-12-14T14:21:08;5.20;99.90
5711;DHT22;61291;52.524;13.422;2023-12-14T14:23:37;5.10;99.90
5711;DHT22;61291;52.524;13.422;2023-12-14T14:26:03;5.10;99.90
5711;DHT22;61291;52.524;13.422;2023-12-14T14:28:28;5.10;99.90
5711;DHT22;61291;52.524;13.422;2023-12-14T14:30:54;5.00;99.90
5711;DHT22;61291;52.524;13.422;2023-12-14T14:33:19;4.90;99.90
5711;DHT22;61291;52.524;13.422;2023-12-14T14:35:45;5.00;99.90
5711;DHT22;61291;52.524;13.422;2023-12-14T14:38:14;5.00;99.90
5711;DHT22;61291;52.524;13.422;2023-12-14T14:40:40;5.00;99.90
5711;DHT22;61291;52.524;13.422;2023-12-14T14:43:07;5.00;99.90
5711;DHT22;61291;52.524;13.422;2023-12-14T14:45:32;4.90;99.90
5711;DHT22;61291;52.524;13.422;2023-12-14T14:47:58;4.90;99.90
5711;DHT22;61291;52.524;13.422;2023-12-14T14:50:23;4.90;99.90
5711;DHT22;61291;52.524;13.422;2023-12-14T14:52:49;5.00;99.90
5711;DHT22;61291;52.524;13.422;2023-12-14T14:55:14;5.00;99.90
5711;DHT22;61291;52.524;13.422;2023-12-14T14:57:40;4.90;99.90
5711;DHT22;61291;52.524;13.422;2023-12-14T15:00:06;5.00;99.90
5711;DHT22;61291;52.524;13.422;2023-12-14T15:02:32;5.10;99.90
5711;DHT22;61291;52.524;13.422;2023-12-14T15:04:58;5.10;99.90
5711;DHT22;61291;52.524;13.422;2023-12-14T15:07:24;5.10;99.90
5711;DHT22;61291;52.524;13.422;2023-12-14T15:09:49;5.10;99.90
5711;DHT22;61291;52.524;13.422;2023-12-14T15:12:14;5.00;99.90
5711;DHT22;61291;52.524;13.422;2023-12-14T15:14:40;5.00;99.90
5711;DHT22;61291;52.524;13.422;2023-12-14T15:17:06;5.00;99.90
5711;DHT22;61291;52.524;13.422;2023-12-14T15:19:31;5.00;99.90
5711;DHT22;61291;52.524;13.422;2023-12-14T15:21:56;5.00;99.90
5711;DHT22;61291;52.524;13.422;2023-12-14T15:24:22;5.00;99.90
5711;DHT22;61291;52.524;13.422;2023-12-14T15:26:48;5.00;99.90
5711;DHT22;61291;52.524;13.422;2023-12-14T15:29:14;5.00;99.90
5711;DHT22;61291;52.524;13.422;2023-12-14T15:31:40;5.00;99.90
5711;DHT22;61291;52.524;13.422;2023-12-14T15:34:05;5.10;99.90
5711;DHT22;61291;52.524;13.422;2023-12-14T15:36:32;5.00;99.90
5711;DHT22;61291;52.524;13.422;2023-12-14T15:38:59;5.10;99.90
5711;DHT22;61291;52.524;13.422;2023-12-14T15:41:25;5.10;99.90
5711;DHT22;61291;52.524;13.422;2023-12-14T15:43:50;5.20;99.90